Time;durP1;ratioP1;P1;durP2;ratioP2;P2;SDS_P1;SDS_P2;PMS_P1;PMS_P2;Temp;Humidity;BMP_temperature;BMP_pressure;BME280_temperature;BME280_humidity;BME280_pressure;Samples;Min_cycle;Max_cycle;Signal;HPM_P1;HPM_P2
2022/08/17 00:01:16;;;;;;;0.52;0.52;;;21.30;99.90;;;;;;4955772;29;20376;-68
2022/08/17 00:03:45;;;;;;;0.20;0.15;;;21.30;99.90;;;;;;4955930;28;20399;-68
2022/08/17 00:06:20;;;;;;;0.52;0.43;;;21.30;99.90;;;;;;4956727;28;20106;-68
2022/08/17 00:08:51;;;;;;;1.27;0.63;;;21.30;99.90;;;;;;4955651;29;20067;-69
2022/08/17 00:11:30;;;;;;;1.02;0.80;;;21.40;99.90;;;;;;4956741;28;20101;-68
2022/08/17 00:14:08;;;;;;;0.08;0.08;;;21.40;99.90;;;;;;4955273;29;20028;-69
2022/08/17 00:16:46;;;;;;;1.08;0.82;;;21.40;99.90;;;;;;4955107;29;20555;-69
2022/08/17 00:19:15;;;;;;;0.52;0.47;;;21.40;99.90;;;;;;4955955;28;20566;-69
2022/08/17 00:21:46;;;;;;;0.13;0.13;;;21.30;99.90;;;;;;4956728;28;20027;-69
2022/08/17 00:24:13;;;;;;;1.15;0.80;;;21.30;99.90;;;;;;4956500;28;20028;-69
2022/08/17 00:26:40;;;;;;;0.15;0.15;;;21.20;99.90;;;;;;4955510;29;20031;-69
2022/08/17 00:29:07;;;;;;;0.22;0.22;;;21.20;99.90;;;;;;4954872;29;20081;-69
2022/08/17 00:31:34;;;;;;;0.30;0.30;;;21.20;99.90;;;;;;4956190;28;20038;-69
2022/08/17 00:34:01;;;;;;;0.10;0.10;;;21.20;99.90;;;;;;4954979;29;20411;-69
2022/08/17 00:36:26;;;;;;;0.22;0.22;;;21.30;99.90;;;;;;4956249;28;20443;-69
2022/08/17 00:38:53;;;;;;;0.50;0.43;;;21.30;99.90;;;;;;4955922;28;20123;-69
2022/08/17 00:41:23;;;;;;;1.60;1.27;;;21.40;99.90;;;;;;4955943;28;20106;-70
2022/08/17 00:43:52;;;;;;;1.00;0.93;;;21.40;99.90;;;;;;4956116;28;20031;-70
2022/08/17 00:46:27;;;;;;;0.28;0.28;;;21.40;99.90;;;;;;4956042;28;20031;-69
2022/08/17 00:48:53;;;;;;;0.40;0.40;;;21.40;99.90;;;;;;4970649;28;20035;-69
2022/08/17 00:51:37;;;;;;;0.13;0.13;;;21.30;99.90;;;;;;4955867;28;20039;-70
2022/08/17 00:54:21;;;;;;;4.80;1.17;;;21.20;99.90;;;;;;4954520;28;20086;-69
2022/08/17 00:57:12;;;;;;;0.25;0.25;;;21.10;99.90;;;;;;4955867;28;20491;-69
2022/08/17 00:59:45;;;;;;;0.43;0.43;;;21.10;99.90;;;;;;4953906;29;20035;-69
2022/08/17 01:02:14;;;;;;;0.35;0.30;;;21.10;99.90;;;;;;4954222;29;20027;-69
2022/08/17 01:04:43;;;;;;;5.43;0.70;;;21.00;99.90;;;;;;4956032;28;20039;-69
2022/08/17 01:07:11;;;;;;;0.30;0.30;;;21.10;99.90;;;;;;4954089;28;20051;-70
2022/08/17 01:09:38;;;;;;;1.48;1.13;;;21.10;99.90;;;;;;4967045;28;20023;-69
2022/08/17 01:12:07;;;;;;;0.25;0.25;;;21.20;99.90;;;;;;4960699;28;20102;-69
2022/08/17 01:14:34;;;;;;;1.65;0.90;;;21.20;99.90;;;;;;4955365;28;20043;-69
2022/08/17 01:16:59;;;;;;;0.73;0.57;;;21.20;99.90;;;;;;4955513;28;20138;-69
2022/08/17 01:19:37;;;;;;;0.73;0.68;;;21.20;99.90;;;;;;4955270;28;20117;-69
2022/08/17 01:22:13;;;;;;;0.20;0.20;;;21.30;99.90;;;;;;4955248;28;20026;-70
2022/08/17 01:24:52;;;;;;;0.40;0.30;;;21.40;99.90;;;;;;4966513;28;20031;-70
2022/08/17 01:27:20;;;;;;;0.25;0.15;;;21.40;99.90;;;;;;4973078;28;20023;-70
2022/08/17 01:29:56;;;;;;;0.05;0.05;;;21.50;99.90;;;;;;4975062;28;20062;-70
2022/08/17 01:32:22;;;;;;;0.20;0.20;;;21.40;99.90;;;;;;4973036;28;20121;-70
2022/08/17 01:34:49;;;;;;;0.77;0.65;;;21.50;99.90;;;;;;4973108;28;20102;-70
2022/08/17 01:37:15;;;;;;;0.25;0.25;;;21.60;99.90;;;;;;4974603;28;20089;-70
2022/08/17 01:39:52;;;;;;;1.30;0.85;;;21.70;99.90;;;;;;4940816;28;20039;-70
2022/08/17 01:42:38;;;;;;;0.75;0.47;;;21.70;99.90;;;;;;4969922;28;20027;-70
2022/08/17 01:45:21;;;;;;;0.65;0.52;;;21.70;99.90;;;;;;4968884;28;20035;-70
2022/08/17 01:47:49;;;;;;;0.63;0.40;;;21.80;99.90;;;;;;4968953;28;20086;-70
2022/08/17 01:50:25;;;;;;;0.55;0.47;;;21.90;99.90;;;;;;4954393;28;20034;-70
2022/08/17 01:52:57;;;;;;;0.20;0.20;;;22.00;99.90;;;;;;4968813;28;20033;-70
2022/08/17 01:55:32;;;;;;;0.10;0.10;;;22.20;99.90;;;;;;4953513;29;20027;-70
2022/08/17 01:57:58;;;;;;;0.57;0.57;;;22.30;99.90;;;;;;4968984;28;20030;-71
2022/08/17 02:00:26;;;;;;;1.02;0.85;;;22.40;99.90;;;;;;4969627;28;20035;-70
2022/08/17 02:02:51;;;;;;;0.20;0.20;;;22.30;99.90;;;;;;4981252;23;20041;-72
2022/08/17 02:05:18;;;;;;;0.22;0.22;;;22.20;99.90;;;;;;4942076;29;20039;-71
2022/08/17 02:07:44;;;;;;;0.52;0.52;;;22.20;99.90;;;;;;4953547;28;20496;-71
2022/08/17 02:10:10;;;;;;;0.30;0.30;;;22.10;99.90;;;;;;4954521;28;20084;-71
2022/08/17 02:12:37;;;;;;;0.95;0.70;;;22.00;99.90;;;;;;4954209;28;20086;-71
2022/08/17 02:15:09;;;;;;;0.40;0.40;;;21.80;99.90;;;;;;4952964;29;20031;-71
2022/08/17 02:17:34;;;;;;;0.52;0.52;;;21.70;99.90;;;;;;4954400;28;20035;-72
2022/08/17 02:20:00;;;;;;;1.08;0.70;;;21.60;99.90;;;;;;4954149;28;20035;-72
2022/08/17 02:22:27;;;;;;;0.47;0.47;;;21.50;99.90;;;;;;4954022;28;20110;-71
2022/08/17 02:24:54;;;;;;;0.35;0.35;;;21.50;99.90;;;;;;4952998;28;20038;-71
2022/08/17 02:27:20;;;;;;;0.63;0.55;;;21.40;99.90;;;;;;4954119;28;20054;-72
2022/08/17 02:29:45;;;;;;;0.30;0.20;;;21.40;99.90;;;;;;4954056;28;20472;-72
2022/08/17 02:32:22;;;;;;;0.47;0.45;;;21.30;99.90;;;;;;4954072;28;20042;-72
2022/08/17 02:34:48;;;;;;;0.68;0.68;;;21.20;99.90;;;;;;4954082;28;20400;-71
2022/08/17 02:37:16;;;;;;;0.25;0.25;;;21.20;99.90;;;;;;4953953;28;20038;-72
2022/08/17 02:39:44;;;;;;;0.60;0.60;;;21.10;99.90;;;;;;4953894;28;20395;-71
2022/08/17 02:42:12;;;;;;;0.00;0.00;;;21.00;99.90;;;;;;4953808;28;20039;-71
2022/08/17 02:44:39;;;;;;;1.10;1.00;;;21.00;99.90;;;;;;4953684;28;20434;-71
2022/08/17 02:47:07;;;;;;;0.22;0.20;;;21.00;99.90;;;;;;4952899;29;20078;-71
2022/08/17 02:49:32;;;;;;;0.38;0.38;;;21.00;99.90;;;;;;4953875;28;20115;-71
2022/08/17 02:52:05;;;;;;;0.28;0.22;;;21.10;99.90;;;;;;4953598;28;20356;-71
2022/08/17 02:54:31;;;;;;;1.17;1.05;;;21.20;99.90;;;;;;4952382;29;20037;-71
2022/08/17 02:56:57;;;;;;;0.05;0.05;;;21.30;99.90;;;;;;4953632;28;20031;-72
2022/08/17 02:59:23;;;;;;;5.85;1.50;;;21.50;99.90;;;;;;4953374;28;20121;-71
2022/08/17 03:01:49;;;;;;;0.10;0.10;;;21.70;99.90;;;;;;4953737;28;20156;-71
2022/08/17 03:04:15;;;;;;;0.45;0.40;;;21.80;99.90;;;;;;4953222;28;20373;-71
2022/08/17 03:06:41;;;;;;;0.45;0.35;;;22.00;99.90;;;;;;4953311;28;20055;-71
2022/08/17 03:09:07;;;;;;;0.10;0.10;;;22.10;99.90;;;;;;4953608;28;20094;-71
2022/08/17 03:11:32;;;;;;;0.47;0.22;;;22.10;99.90;;;;;;4953615;28;20110;-71
2022/08/17 03:13:58;;;;;;;0.80;0.65;;;22.30;99.90;;;;;;4953037;28;20488;-71
2022/08/17 03:16:24;;;;;;;0.13;0.13;;;22.40;99.90;;;;;;4937845;28;20075;-71
2022/08/17 03:18:49;;;;;;;1.55;1.05;;;22.30;99.90;;;;;;4933766;29;20036;-71
2022/08/17 03:21:15;;;;;;;0.15;0.15;;;22.40;99.90;;;;;;4934235;29;20420;-71
2022/08/17 03:23:41;;;;;;;1.20;0.38;;;22.30;99.90;;;;;;4933934;29;20024;-71
2022/08/17 03:26:09;;;;;;;1.73;0.75;;;22.20;99.90;;;;;;4934317;29;20038;-71
2022/08/17 03:28:37;;;;;;;0.17;0.17;;;22.20;99.90;;;;;;4932685;29;20408;-71
2022/08/17 03:31:04;;;;;;;0.38;0.38;;;22.20;99.90;;;;;;4933968;29;20035;-71
2022/08/17 03:33:31;;;;;;;0.47;0.47;;;22.20;99.90;;;;;;4932480;29;20052;-71
2022/08/17 03:35:57;;;;;;;2.83;1.50;;;22.20;99.90;;;;;;4934123;29;20036;-71
2022/08/17 03:38:23;;;;;;;0.10;0.10;;;22.20;99.90;;;;;;4933940;29;20126;-71
2022/08/17 03:40:51;;;;;;;2.40;1.25;;;22.30;99.90;;;;;;4933799;29;20113;-71
2022/08/17 03:43:18;;;;;;;0.85;0.60;;;22.20;99.90;;;;;;4933904;29;20055;-71
2022/08/17 03:57:04;;;;;;;0.35;0.35;;;22.10;99.90;;;;;;4933568;29;20035;-71
2022/08/17 03:59:31;;;;;;;1.95;0.50;;;21.90;99.90;;;;;;4933340;29;20408;-69
2022/08/17 04:02:20;;;;;;;0.45;0.45;;;21.80;99.90;;;;;;4933866;29;20501;-69
2022/08/17 04:04:49;;;;;;;0.30;0.30;;;21.70;99.90;;;;;;4969304;28;20039;-70
2022/08/17 04:07:16;;;;;;;1.52;1.10;;;21.60;99.90;;;;;;4983803;28;20046;-75
2022/08/17 04:09:42;;;;;;;1.33;1.13;;;21.40;99.90;;;;;;4969960;28;20038;-78
2022/08/17 04:12:08;;;;;;;1.13;1.02;;;21.30;99.90;;;;;;4966429;28;20450;-76
2022/08/17 04:14:37;;;;;;;1.20;0.85;;;21.20;99.90;;;;;;4968272;28;20038;-76
2022/08/17 04:17:04;;;;;;;0.60;0.50;;;21.00;99.90;;;;;;4970956;28;20550;-76
2022/08/17 04:19:30;;;;;;;0.73;0.52;;;20.40;99.90;;;;;;4970182;28;20047;-76
2022/08/17 04:21:56;;;;;;;2.53;1.35;;;20.20;99.90;;;;;;4970533;28;20035;-76
2022/08/17 04:24:24;;;;;;;0.45;0.45;;;20.30;99.90;;;;;;4971568;28;20022;-77
2022/08/17 04:26:49;;;;;;;0.93;0.93;;;20.30;99.90;;;;;;4972149;28;20056;-76
2022/08/17 04:29:15;;;;;;;0.25;0.25;;;20.20;99.90;;;;;;4968666;28;20121;-80
2022/08/17 04:31:42;;;;;;;0.47;0.47;;;20.30;99.90;;;;;;5006324;28;20581;-76
2022/08/17 04:34:08;;;;;;;1.25;0.60;;;20.40;99.90;;;;;;4985151;28;20118;-76
2022/08/17 04:36:34;;;;;;;0.85;0.77;;;20.40;99.90;;;;;;4975139;28;20119;-77
2022/08/17 04:39:00;;;;;;;1.60;0.63;;;20.40;99.90;;;;;;4974790;28;20112;-76
2022/08/17 04:44:11;;;;;;;0.75;0.75;;;20.40;99.90;;;;;;4975071;28;20031;-77
2022/08/17 04:46:37;;;;;;;0.52;0.47;;;20.40;99.90;;;;;;4975166;28;20447;-77
2022/08/17 04:49:10;;;;;;;0.75;0.45;;;20.50;99.90;;;;;;4973715;28;20097;-77
2022/08/17 04:51:41;;;;;;;0.43;0.43;;;20.60;99.90;;;;;;4973913;28;20507;-77
2022/08/17 04:54:20;;;;;;;0.40;0.40;;;20.70;99.90;;;;;;4973472;28;20506;-77
2022/08/17 04:56:47;;;;;;;0.40;0.35;;;20.70;99.90;;;;;;4957320;28;20398;-76
2022/08/17 04:59:20;;;;;;;0.32;0.30;;;20.80;99.90;;;;;;4973498;28;20050;-76
2022/08/17 05:01:49;;;;;;;1.45;1.10;;;20.80;99.90;;;;;;4973872;28;20058;-77
2022/08/17 05:04:23;;;;;;;0.90;0.88;;;20.80;99.90;;;;;;4973268;28;20126;-77
2022/08/17 05:06:49;;;;;;;1.05;0.93;;;20.70;99.90;;;;;;4975003;28;20039;-76
2022/08/17 05:09:17;;;;;;;0.13;0.13;;;20.80;99.90;;;;;;4974352;28;20483;-75
2022/08/17 05:11:44;;;;;;;1.75;1.27;;;20.80;99.90;;;;;;4974996;28;20475;-76
2022/08/17 05:14:10;;;;;;;0.38;0.38;;;20.70;99.90;;;;;;4974288;28;20045;-75
2022/08/17 05:16:36;;;;;;;6.07;1.67;;;20.70;99.90;;;;;;4990258;28;20399;-68
2022/08/17 05:19:02;;;;;;;1.90;1.67;;;20.80;99.90;;;;;;4993631;28;20026;-67
2022/08/17 05:21:28;;;;;;;1.65;1.55;;;20.80;99.90;;;;;;4993668;28;20025;-68
2022/08/17 05:23:57;;;;;;;1.63;1.38;;;20.90;99.90;;;;;;4992506;28;20065;-69
2022/08/17 05:26:24;;;;;;;1.25;0.63;;;20.80;99.90;;;;;;4992658;28;20488;-69
2022/08/17 05:28:50;;;;;;;0.45;0.40;;;20.80;99.90;;;;;;4992299;28;20042;-69
2022/08/17 05:31:16;;;;;;;0.55;0.55;;;20.80;99.90;;;;;;4993521;28;20413;-70
2022/08/17 05:33:43;;;;;;;2.15;1.33;;;20.80;99.90;;;;;;4992051;28;20570;-69
2022/08/17 05:36:12;;;;;;;1.52;1.42;;;20.80;99.90;;;;;;4993624;28;20117;-69
2022/08/17 05:38:38;;;;;;;0.98;0.85;;;20.80;99.90;;;;;;4992471;28;20037;-68
2022/08/17 05:41:07;;;;;;;0.60;0.60;;;20.90;99.90;;;;;;4993309;28;20031;-69
2022/08/17 05:43:37;;;;;;;0.88;0.40;;;21.00;99.90;;;;;;4976112;28;20142;-69
2022/08/17 05:46:26;;;;;;;1.60;1.50;;;21.00;99.90;;;;;;4973075;28;20035;-70
2022/08/17 05:49:06;;;;;;;1.55;0.75;;;21.10;99.90;;;;;;4973861;28;20037;-69
2022/08/17 05:52:09;;;;;;;0.88;0.85;;;21.20;99.90;;;;;;4972983;28;20392;-68
2022/08/17 05:55:37;;;;;;;1.80;0.98;;;21.30;99.90;;;;;;4972775;28;20452;-69
2022/08/17 05:58:37;;;;;;;0.30;0.22;;;21.30;99.90;;;;;;4953071;28;20109;-69
2022/08/17 06:01:54;;;;;;;2.92;0.98;;;21.40;99.90;;;;;;4971562;28;20086;-70
2022/08/17 06:05:09;;;;;;;1.98;0.90;;;21.60;99.90;;;;;;4971228;28;20133;-69
2022/08/17 06:07:56;;;;;;;0.82;0.82;;;21.70;99.90;;;;;;5000259;28;20042;-70
2022/08/17 06:10:46;;;;;;;0.93;0.63;;;21.70;99.90;;;;;;5002971;28;20387;-69
2022/08/17 06:13:52;;;;;;;0.22;0.22;;;21.80;99.90;;;;;;4973512;28;20395;-69
2022/08/17 06:16:25;;;;;;;0.28;0.28;;;21.80;99.90;;;;;;5000208;28;20054;-69
2022/08/17 06:19:17;;;;;;;0.20;0.20;;;21.80;99.90;;;;;;5003252;28;20038;-68
2022/08/17 06:21:49;;;;;;;14.25;2.65;;;21.80;99.90;;;;;;5004014;28;20041;-69
2022/08/17 06:24:37;;;;;;;2.53;0.55;;;21.70;99.90;;;;;;5003212;28;20463;-68
2022/08/17 06:27:38;;;;;;;0.38;0.38;;;21.90;99.90;;;;;;5003491;28;20070;-67
2022/08/17 06:30:27;;;;;;;1.10;0.50;;;21.90;99.90;;;;;;4972922;28;20031;-69
2022/08/17 06:33:01;;;;;;;2.13;1.17;;;21.90;99.90;;;;;;4972744;28;20049;-69
2022/08/17 06:35:44;;;;;;;0.73;0.73;;;22.00;99.90;;;;;;4972923;28;20415;-68
2022/08/17 06:38:45;;;;;;;0.70;0.70;;;21.90;99.90;;;;;;4971636;28;20107;-67
2022/08/17 06:41:23;;;;;;;1.73;1.38;;;22.00;99.90;;;;;;4952648;29;20023;-70
2022/08/17 06:44:13;;;;;;;0.17;0.17;;;21.90;99.90;;;;;;5002328;28;20065;-69
2022/08/17 06:46:47;;;;;;;0.90;0.80;;;21.80;99.90;;;;;;4973022;28;20031;-69
2022/08/17 06:49:34;;;;;;;0.65;0.65;;;21.70;99.90;;;;;;4972649;28;20038;-69
2022/08/17 06:52:23;;;;;;;1.95;0.80;;;21.70;99.90;;;;;;4972406;28;20050;-70
2022/08/17 06:55:05;;;;;;;0.30;0.30;;;21.60;99.90;;;;;;4973167;28;20045;-68
2022/08/17 06:57:37;;;;;;;0.40;0.40;;;21.60;99.90;;;;;;4971465;28;20058;-69
2022/08/17 07:00:15;;;;;;;0.95;0.52;;;21.60;99.90;;;;;;4987590;28;20117;-70
2022/08/17 07:02:46;;;;;;;0.10;0.10;;;21.60;99.90;;;;;;4971280;28;20031;-69
2022/08/17 07:05:17;;;;;;;0.90;0.80;;;21.60;99.90;;;;;;4972689;28;20042;-69
2022/08/17 07:08:20;;;;;;;0.32;0.32;;;21.70;99.90;;;;;;4972491;28;20458;-69
2022/08/17 07:10:59;;;;;;;1.05;0.75;;;21.80;99.90;;;;;;4971567;28;20031;-68
2022/08/17 07:13:43;;;;;;;2.17;0.85;;;21.70;99.90;;;;;;4971083;28;20031;-69
2022/08/17 07:16:40;;;;;;;0.10;0.10;;;21.80;99.90;;;;;;4972599;28;20023;-69
2022/08/17 07:19:07;;;;;;;0.20;0.20;;;21.80;99.90;;;;;;4971670;28;20034;-68
2022/08/17 07:21:50;;;;;;;1.10;0.73;;;21.80;99.90;;;;;;4972030;28;20030;-68
2022/08/17 07:24:50;;;;;;;0.38;0.20;;;21.90;99.90;;;;;;4971201;28;20035;-69
2022/08/17 07:27:40;;;;;;;0.10;0.10;;;21.80;99.90;;;;;;4971034;28;20407;-70
2022/08/17 07:30:15;;;;;;;0.70;0.70;;;21.70;99.90;;;;;;4984415;28;20049;-69
2022/08/17 07:32:53;;;;;;;5.55;1.63;;;21.70;99.90;;;;;;4972120;28;20624;-70
2022/08/17 07:35:28;;;;;;;0.80;0.75;;;21.80;99.90;;;;;;4971074;28;20098;-69
2022/08/17 07:38:23;;;;;;;0.55;0.55;;;21.90;99.90;;;;;;4971958;28;20109;-67
2022/08/17 07:41:01;;;;;;;2.55;1.25;;;22.00;99.90;;;;;;4970811;28;20034;-70
2022/08/17 07:43:48;;;;;;;0.63;0.50;;;21.90;99.90;;;;;;4972014;28;20023;-69
2022/08/17 07:49:09;;;;;;;0.75;0.65;;;21.90;99.90;;;;;;4972035;28;20479;-69
2022/08/17 07:51:46;;;;;;;0.50;0.50;;;21.90;99.90;;;;;;4972033;28;20078;-68
2022/08/17 07:54:14;;;;;;;0.80;0.80;;;22.00;99.90;;;;;;4972109;28;20066;-69
2022/08/17 07:57:12;;;;;;;0.35;0.25;;;22.00;99.90;;;;;;4970931;28;20043;-69
2022/08/17 07:59:58;;;;;;;0.22;0.22;;;22.00;99.90;;;;;;4971867;28;20039;-69
2022/08/17 08:02:27;;;;;;;0.30;0.30;;;22.10;99.90;;;;;;4970929;28;20026;-69
2022/08/17 08:05:24;;;;;;;0.00;0.00;;;22.20;99.90;;;;;;4979320;23;20125;-70
2022/08/17 08:07:56;;;;;;;0.55;0.55;;;22.20;99.90;;;;;;4922968;29;20032;-71
2022/08/17 08:10:42;;;;;;;1.30;1.10;;;22.20;99.90;;;;;;4937208;29;20488;-70
2022/08/17 08:13:21;;;;;;;0.20;0.20;;;22.20;99.90;;;;;;4937276;29;20079;-70
2022/08/17 08:15:54;;;;;;;0.65;0.65;;;22.30;99.90;;;;;;4950997;29;20055;-71
2022/08/17 08:18:47;;;;;;;0.45;0.45;;;22.20;99.90;;;;;;4965725;28;20035;-70
2022/08/17 08:21:47;;;;;;;0.40;0.40;;;22.20;99.90;;;;;;4965795;28;20035;-70
2022/08/17 08:25:13;;;;;;;0.77;0.68;;;22.10;99.90;;;;;;4956341;28;20027;-71
2022/08/17 08:27:56;;;;;;;1.02;0.47;;;22.10;99.90;;;;;;4955929;28;20033;-71
2022/08/17 08:30:22;;;;;;;1.20;0.63;;;22.20;99.90;;;;;;4956015;28;20034;-71
2022/08/17 08:33:07;;;;;;;0.28;0.28;;;22.40;99.90;;;;;;4942570;28;20024;-71
2022/08/17 08:36:02;;;;;;;0.43;0.17;;;22.30;99.90;;;;;;4936912;29;20038;-70
2022/08/17 08:38:57;;;;;;;1.30;1.00;;;22.30;99.90;;;;;;4936722;29;20036;-70
2022/08/17 08:41:57;;;;;;;0.57;0.57;;;22.40;99.90;;;;;;4936665;29;20028;-70
2022/08/17 08:45:11;;;;;;;1.25;0.98;;;22.50;99.90;;;;;;4951126;29;20039;-70
2022/08/17 08:47:58;;;;;;;1.17;0.63;;;22.70;99.90;;;;;;4934943;29;20058;-70
2022/08/17 08:50:41;;;;;;;0.08;0.08;;;22.70;99.90;;;;;;4936465;29;20103;-70
2022/08/17 08:53:17;;;;;;;0.95;0.68;;;22.80;99.90;;;;;;4936056;29;20041;-70
2022/08/17 08:56:11;;;;;;;0.70;0.45;;;22.90;99.90;;;;;;4936447;29;20034;-70
2022/08/17 08:59:06;;;;;;;0.30;0.30;;;22.90;99.90;;;;;;4935280;29;20042;-70
2022/08/17 09:02:06;;;;;;;4.53;1.48;;;23.00;99.90;;;;;;4936526;29;20036;-70
2022/08/17 09:05:26;;;;;;;0.30;0.30;;;23.10;99.90;;;;;;4936339;29;20175;-70
2022/08/17 09:08:33;;;;;;;4.43;0.55;;;23.10;99.90;;;;;;4932210;29;20508;-70
2022/08/17 09:11:12;;;;;;;0.30;0.30;;;23.20;99.90;;;;;;4936164;29;20134;-70
2022/08/17 09:13:40;;;;;;;0.45;0.45;;;23.20;99.90;;;;;;4950091;28;20039;-70
2022/08/17 09:16:17;;;;;;;0.50;0.50;;;23.30;99.90;;;;;;4935824;29;20102;-70
2022/08/17 09:18:51;;;;;;;0.93;0.93;;;23.40;99.90;;;;;;4949881;29;20028;-70
2022/08/17 09:21:34;;;;;;;0.60;0.60;;;23.50;99.90;;;;;;4950871;29;20034;-70
2022/08/17 09:24:11;;;;;;;16.08;1.65;;;23.60;99.90;;;;;;4949798;29;20138;-70
2022/08/17 09:26:49;;;;;;;0.57;0.35;;;23.90;99.90;;;;;;4935939;29;20043;-70
2022/08/17 09:29:16;;;;;;;0.90;0.70;;;23.90;99.90;;;;;;4950029;29;20043;-69
2022/08/17 09:32:20;;;;;;;1.10;0.90;;;23.90;99.90;;;;;;4935717;29;20036;-72
2022/08/17 09:35:02;;;;;;;0.10;0.10;;;24.00;99.90;;;;;;4944672;28;20046;-71
2022/08/17 09:38:18;;;;;;;0.30;0.28;;;24.20;99.90;;;;;;4988738;28;20035;-72
2022/08/17 09:41:18;;;;;;;20.85;1.83;;;24.30;99.90;;;;;;4973026;28;20061;-71
2022/08/17 09:44:01;;;;;;;1.00;0.88;;;24.10;99.90;;;;;;4940310;28;20484;-72
2022/08/17 09:46:46;;;;;;;1.00;0.82;;;24.00;99.90;;;;;;4934532;29;20059;-74
2022/08/17 09:49:34;;;;;;;1.30;1.20;;;23.80;99.90;;;;;;4934015;29;20443;-73
2022/08/17 09:52:09;;;;;;;0.28;0.28;;;23.80;99.90;;;;;;4934162;29;20862;-73
2022/08/17 09:54:39;;;;;;;0.73;0.73;;;23.90;99.90;;;;;;4934474;29;20043;-73
2022/08/17 09:57:23;;;;;;;0.20;0.20;;;23.90;99.90;;;;;;4935633;29;20046;-72
2022/08/17 10:00:24;;;;;;;1.00;0.85;;;23.80;99.90;;;;;;4933880;29;20066;-73
2022/08/17 10:03:14;;;;;;;0.28;0.25;;;23.80;99.90;;;;;;4934964;29;20039;-73
2022/08/17 10:06:12;;;;;;;5.65;0.52;;;23.80;99.90;;;;;;4935516;29;20032;-73
2022/08/17 10:08:53;;;;;;;1.23;0.63;;;23.90;99.90;;;;;;4934959;29;20074;-73
2022/08/17 10:14:36;;;;;;;2.40;2.05;;;23.80;99.90;;;;;;4933537;29;20032;-73
2022/08/17 10:17:20;;;;;;;0.95;0.77;;;23.70;99.90;;;;;;4948601;28;20042;-72
2022/08/17 10:20:07;;;;;;;1.08;0.60;;;23.70;99.90;;;;;;4968676;28;20437;-75
2022/08/17 10:26:11;;;;;;;;;;;23.50;99.90;;;;;;4946516;28;20495;-74
2022/08/17 10:28:51;;;;;;;1.55;0.75;;;23.20;99.90;;;;;;4953008;28;20001;-72
2022/08/17 10:31:37;;;;;;;1.33;0.95;;;23.00;99.90;;;;;;4968061;28;20035;-72
2022/08/17 10:34:51;;;;;;;2.83;0.65;;;22.90;99.90;;;;;;4955129;28;20039;-72
2022/08/17 10:38:05;;;;;;;1.33;1.23;;;22.90;99.90;;;;;;4933289;29;20067;-74
2022/08/17 10:40:35;;;;;;;0.82;0.82;;;22.90;99.90;;;;;;4915807;29;20052;-70
2022/08/17 10:43:23;;;;;;;0.80;0.75;;;22.90;99.90;;;;;;4932845;29;20038;-71
2022/08/17 10:46:15;;;;;;;0.45;0.40;;;23.00;99.90;;;;;;4934504;29;20656;-72
2022/08/17 10:48:41;;;;;;;1.02;0.93;;;23.20;99.90;;;;;;4934626;29;20035;-72
2022/08/17 10:51:36;;;;;;;0.57;0.57;;;23.20;99.90;;;;;;4949180;29;20496;-71
2022/08/17 10:54:37;;;;;;;0.70;0.57;;;23.40;99.90;;;;;;4948356;29;20034;-71
2022/08/17 10:57:35;;;;;;;1.85;0.85;;;23.60;99.90;;;;;;4934381;29;20042;-70
2022/08/17 11:00:09;;;;;;;2.25;1.25;;;23.60;99.90;;;;;;4932906;29;20046;-70
2022/08/17 11:02:53;;;;;;;1.27;0.65;;;23.80;99.90;;;;;;4949124;29;20028;-71
2022/08/17 11:05:57;;;;;;;0.90;0.85;;;23.70;99.90;;;;;;4948648;29;20095;-71
2022/08/17 11:09:09;;;;;;;0.52;0.40;;;23.90;99.90;;;;;;4934136;29;20038;-70
2022/08/17 11:12:18;;;;;;;1.73;0.63;;;23.90;99.90;;;;;;4933992;29;20075;-70
2022/08/17 11:14:54;;;;;;;0.20;0.20;;;24.30;99.90;;;;;;4933990;29;20074;-71
2022/08/17 11:17:48;;;;;;;0.00;0.00;;;24.40;99.90;;;;;;4934069;29;20082;-70
2022/08/17 11:21:13;;;;;;;0.38;0.38;;;24.60;99.90;;;;;;4933963;29;20460;-70
2022/08/17 11:24:13;;;;;;;0.00;0.00;;;24.80;99.90;;;;;;4893721;29;20029;-67
2022/08/17 11:26:46;;;;;;;0.40;0.40;;;24.90;99.90;;;;;;4878049;29;20432;-68
2022/08/17 11:29:28;;;;;;;0.20;0.20;;;25.30;99.90;;;;;;4877874;29;20084;-67
2022/08/17 11:32:27;;;;;;;0.77;0.60;;;25.90;99.90;;;;;;4893515;29;20040;-68
2022/08/17 11:35:20;;;;;;;2.92;0.77;;;26.30;98.80;;;;;;4893584;29;20083;-68
2022/08/17 11:38:04;;;;;;;0.38;0.38;;;26.20;97.80;;;;;;4895876;29;20112;-68
2022/08/17 11:40:59;;;;;;;0.38;0.38;;;26.50;96.40;;;;;;4911433;29;20048;-68
2022/08/17 11:44:09;;;;;;;0.90;0.73;;;26.60;96.50;;;;;;4898871;29;20488;-68
2022/08/17 11:53:38;;;;;;;0.70;0.63;;;26.70;97.30;;;;;;4914920;29;20138;-69
2022/08/17 11:56:29;;;;;;;0.45;0.35;;;26.70;97.20;;;;;;4941540;29;20183;-68
2022/08/17 11:58:55;;;;;;;0.38;0.38;;;26.70;97.60;;;;;;4951484;29;20046;-71
2022/08/17 12:01:21;;;;;;;0.73;0.70;;;27.00;96.70;;;;;;4951570;28;20031;-68
2022/08/17 12:03:53;;;;;;;1.10;0.63;;;26.80;97.50;;;;;;4933242;28;20039;-68
2022/08/17 12:06:45;;;;;;;0.68;0.50;;;26.80;97.20;;;;;;4971558;28;20035;-68
2022/08/17 12:09:25;;;;;;;0.15;0.15;;;26.60;97.50;;;;;;4970474;28;20042;-68
2022/08/17 12:12:15;;;;;;;0.15;0.15;;;26.20;98.30;;;;;;4971047;28;20054;-68
2022/08/17 12:14:53;;;;;;;1.42;0.95;;;25.90;98.80;;;;;;4972042;28;20110;-68
2022/08/17 12:17:28;;;;;;;0.85;0.85;;;26.00;99.10;;;;;;4971774;28;20058;-68
2022/08/17 12:20:06;;;;;;;1.55;0.82;;;25.90;99.20;;;;;;4970668;28;20041;-68
2022/08/17 12:23:04;;;;;;;2.33;1.27;;;25.70;99.50;;;;;;4971955;28;20023;-68
2022/08/17 12:25:36;;;;;;;0.70;0.65;;;25.70;99.80;;;;;;4964913;28;20476;-67
2022/08/17 12:28:02;;;;;;;0.57;0.50;;;25.80;99.60;;;;;;4952874;29;20114;-68
2022/08/17 12:30:28;;;;;;;0.30;0.30;;;25.80;99.70;;;;;;4953822;28;20034;-67
2022/08/17 12:32:54;;;;;;;2.58;1.20;;;25.70;99.50;;;;;;4951196;29;20031;-69
2022/08/17 12:35:37;;;;;;;0.95;0.73;;;25.80;99.50;;;;;;4951266;29;20035;-68
2022/08/17 12:38:09;;;;;;;0.43;0.43;;;25.80;99.30;;;;;;4951470;29;20464;-68
2022/08/17 12:40:35;;;;;;;0.13;0.13;;;25.70;99.10;;;;;;4951226;29;20036;-68
2022/08/17 12:43:07;;;;;;;1.02;0.73;;;25.70;99.20;;;;;;4963309;28;20027;-68
2022/08/17 12:45:38;;;;;;;0.98;0.60;;;25.60;99.10;;;;;;4971911;28;20055;-68
2022/08/17 12:48:23;;;;;;;0.13;0.13;;;25.60;99.30;;;;;;4971723;28;20033;-68
2022/08/17 12:50:51;;;;;;;0.65;0.35;;;25.60;99.70;;;;;;4972236;28;20050;-68
2022/08/17 12:53:23;;;;;;;0.43;0.40;;;25.60;99.90;;;;;;4989549;28;20035;-68
2022/08/17 12:55:50;;;;;;;0.85;0.55;;;25.60;99.90;;;;;;4975223;28;20031;-68
2022/08/17 12:58:25;;;;;;;0.98;0.60;;;25.60;99.90;;;;;;4989917;28;20097;-68
2022/08/17 13:01:07;;;;;;;3.17;1.10;;;25.50;99.90;;;;;;4989628;28;20030;-68
2022/08/17 13:03:48;;;;;;;0.22;0.20;;;25.60;99.90;;;;;;4988993;28;20475;-68
2022/08/17 13:06:33;;;;;;;0.30;0.30;;;25.60;99.90;;;;;;4975209;28;20137;-68
2022/08/17 13:09:29;;;;;;;0.57;0.55;;;25.80;99.70;;;;;;4989707;28;20039;-68
2022/08/17 13:11:59;;;;;;;0.30;0.30;;;26.00;99.70;;;;;;4974656;28;20503;-69
2022/08/17 13:14:26;;;;;;;0.35;0.25;;;26.30;98.90;;;;;;4989408;28;20129;-68
2022/08/17 13:16:59;;;;;;;0.52;0.52;;;26.50;98.80;;;;;;4989655;28;20054;-68
2022/08/17 13:19:31;;;;;;;0.25;0.22;;;26.70;98.30;;;;;;4989285;28;20548;-69
2022/08/17 13:22:00;;;;;;;1.45;0.73;;;27.40;97.20;;;;;;4989146;28;20118;-68
2022/08/17 13:24:30;;;;;;;4.20;0.43;;;28.00;96.60;;;;;;4989268;28;20454;-68
2022/08/17 13:27:08;;;;;;;7.07;1.38;;;27.80;95.50;;;;;;4989093;28;20035;-69
2022/08/17 13:29:43;;;;;;;0.30;0.30;;;28.30;95.20;;;;;;4989130;28;20031;-68
2022/08/17 13:32:10;;;;;;;0.45;0.40;;;28.60;94.40;;;;;;4974174;28;20486;-68
2022/08/17 13:34:42;;;;;;;0.38;0.38;;;29.50;93.80;;;;;;4974308;28;20050;-68
2022/08/17 13:37:25;;;;;;;0.40;0.20;;;29.90;92.10;;;;;;4974364;28;20034;-68
2022/08/17 13:39:59;;;;;;;0.25;0.25;;;30.70;91.50;;;;;;4989127;28;20042;-68
2022/08/17 13:42:38;;;;;;;0.80;0.63;;;31.00;90.10;;;;;;4974721;28;20030;-69
2022/08/17 13:45:38;;;;;;;0.30;0.28;;;30.80;90.10;;;;;;4974291;28;20641;-67
2022/08/17 13:48:07;;;;;;;0.57;0.40;;;31.30;88.30;;;;;;4974453;28;20046;-69
2022/08/17 13:50:39;;;;;;;0.32;0.25;;;31.30;87.40;;;;;;4973761;28;20037;-69
2022/08/17 13:53:24;;;;;;;0.57;0.52;;;31.10;86.30;;;;;;4988426;28;20034;-69
2022/08/17 13:56:22;;;;;;;2.25;1.17;;;31.30;86.70;;;;;;4988995;28;20085;-68
2022/08/17 13:58:58;;;;;;;3.90;1.05;;;32.40;83.20;;;;;;4986091;28;20575;-69
2022/08/17 14:01:41;;;;;;;0.10;0.10;;;31.60;84.90;;;;;;4988016;28;20510;-69
2022/08/17 14:04:30;;;;;;;0.32;0.32;;;31.20;84.50;;;;;;4990426;23;20122;-66
2022/08/17 14:07:10;;;;;;;0.35;0.32;;;31.90;84.50;;;;;;4996419;28;20019;-66
2022/08/17 14:09:58;;;;;;;0.80;0.75;;;31.40;84.10;;;;;;4987581;28;20073;-66
2022/08/17 14:12:27;;;;;;;4.60;0.57;;;31.10;82.70;;;;;;4994139;28;20038;-66
2022/08/17 14:14:55;;;;;;;0.57;0.52;;;31.20;82.20;;;;;;4994209;28;20035;-67